sensor_id;sensor_type;location;lat;lon;timestamp;temperature;humidity
52209;DHT22;38507;53.132;6.394;2022-10-16T00:01:24;12.60;99.90
52209;DHT22;38507;53.132;6.394;2022-10-16T00:03:51;12.40;99.90
52209;DHT22;38507;53.132;6.394;2022-10-16T00:06:18;12.60;99.90
52209;DHT22;38507;53.132;6.394;2022-10-16T00:08:45;12.10;99.90
52209;DHT22;38507;53.132;6.394;2022-10-16T00:13:40;12.10;99.90
52209;DHT22;38507;53.132;6.394;2022-10-16T00:16:06;12.50;99.90
52209;DHT22;38507;53.132;6.394;2022-10-16T00:18:39;12.10;99.90
52209;DHT22;38507;53.132;6.394;2022-10-16T00:21:13;12.20;99.90
52209;DHT22;38507;53.132;6.394;2022-10-16T00:23:39;12.30;99.90
52209;DHT22;38507;53.132;6.394;2022-10-16T00:26:08;12.60;99.90
52209;DHT22;38507;53.132;6.394;2022-10-16T00:28:35;12.30;99.90
52209;DHT22;38507;53.132;6.394;2022-10-16T00:31:06;12.50;99.90
52209;DHT22;38507;53.132;6.394;2022-10-16T00:33:32;12.60;99.90
52209;DHT22;38507;53.132;6.394;2022-10-16T00:35:59;12.70;99.90
52209;DHT22;38507;53.132;6.394;2022-10-16T00:38:25;12.70;99.90
52209;DHT22;38507;53.132;6.394;2022-10-16T00:40:50;12.80;99.90
52209;DHT22;38507;53.132;6.394;2022-10-16T00:46:02;12.10;99.90
52209;DHT22;38507;53.132;6.394;2022-10-16T00:48:29;12.20;99.90
52209;DHT22;38507;53.132;6.394;2022-10-16T00:50:56;12.10;99.90
52209;DHT22;38507;53.132;6.394;2022-10-16T00:53:23;12.10;99.90
52209;DHT22;38507;53.132;6.394;2022-10-16T00:55:50;12.20;99.90
52209;DHT22;38507;53.132;6.394;2022-10-16T00:58:15;12.20;99.90
52209;DHT22;38507;53.132;6.394;2022-10-16T01:00:41;12.30;99.90
52209;DHT22;38507;53.132;6.394;2022-10-16T01:03:25;12.30;99.90
52209;DHT22;38507;53.132;6.394;2022-10-16T01:06:10;12.80;99.90
52209;DHT22;38507;53.132;6.394;2022-10-16T01:11:33;12.30;99.90
52209;DHT22;38507;53.132;6.394;2022-10-16T01:14:06;12.70;99.90
52209;DHT22;38507;53.132;6.394;2022-10-16T01:16:53;12.60;99.90
52209;DHT22;38507;53.132;6.394;2022-10-16T01:19:32;12.30;99.90
52209;DHT22;38507;53.132;6.394;2022-10-16T01:22:03;12.30;99.90
52209;DHT22;38507;53.132;6.394;2022-10-16T01:24:40;12.70;99.90
52209;DHT22;38507;53.132;6.394;2022-10-16T01:27:14;12.30;99.90
52209;DHT22;38507;53.132;6.394;2022-10-16T01:30:02;12.30;99.90
52209;DHT22;38507;53.132;6.394;2022-10-16T01:32:42;12.80;99.90
52209;DHT22;38507;53.132;6.394;2022-10-16T01:35:31;12.40;99.90
52209;DHT22;38507;53.132;6.394;2022-10-16T01:38:02;12.30;99.90
52209;DHT22;38507;53.132;6.394;2022-10-16T01:40:29;12.30;99.90
52209;DHT22;38507;53.132;6.394;2022-10-16T01:43:05;12.90;99.90
52209;DHT22;38507;53.132;6.394;2022-10-16T01:45:32;12.40;99.90
52209;DHT22;38507;53.132;6.394;2022-10-16T01:48:00;12.40;99.90
52209;DHT22;38507;53.132;6.394;2022-10-16T01:50:26;12.40;99.90
52209;DHT22;38507;53.132;6.394;2022-10-16T01:52:54;12.40;99.90
52209;DHT22;38507;53.132;6.394;2022-10-16T01:55:36;12.40;99.90
52209;DHT22;38507;53.132;6.394;2022-10-16T01:58:05;12.40;99.90
52209;DHT22;38507;53.132;6.394;2022-10-16T02:00:37;12.40;99.90
52209;DHT22;38507;53.132;6.394;2022-10-16T02:03:04;12.20;99.90
52209;DHT22;38507;53.132;6.394;2022-10-16T02:05:40;12.60;99.90
52209;DHT22;38507;53.132;6.394;2022-10-16T02:08:06;12.40;99.90
52209;DHT22;38507;53.132;6.394;2022-10-16T02:10:32;12.50;99.90
52209;DHT22;38507;53.132;6.394;2022-10-16T02:13:06;12.60;99.90
52209;DHT22;38507;53.132;6.394;2022-10-16T02:15:32;12.90;99.90
52209;DHT22;38507;53.132;6.394;2022-10-16T02:17:57;13.00;99.90
52209;DHT22;38507;53.132;6.394;2022-10-16T02:20:28;12.90;99.90
52209;DHT22;38507;53.132;6.394;2022-10-16T02:22:56;12.50;99.90
52209;DHT22;38507;53.132;6.394;2022-10-16T02:25:30;12.80;99.90
52209;DHT22;38507;53.132;6.394;2022-10-16T02:28:17;12.50;99.90
52209;DHT22;38507;53.132;6.394;2022-10-16T02:30:46;13.10;99.90
52209;DHT22;38507;53.132;6.394;2022-10-16T02:33:16;12.80;99.90
52209;DHT22;38507;53.132;6.394;2022-10-16T02:35:43;12.80;99.90
52209;DHT22;38507;53.132;6.394;2022-10-16T02:38:10;12.90;99.90
52209;DHT22;38507;53.132;6.394;2022-10-16T02:40:37;12.80;99.90
52209;DHT22;38507;53.132;6.394;2022-10-16T02:43:04;13.00;99.90
52209;DHT22;38507;53.132;6.394;2022-10-16T02:45:30;12.70;99.90
52209;DHT22;38507;53.132;6.394;2022-10-16T02:47:56;12.70;99.90
52209;DHT22;38507;53.132;6.394;2022-10-16T02:50:25;13.20;99.90
52209;DHT22;38507;53.132;6.394;2022-10-16T02:52:50;13.00;99.90
52209;DHT22;38507;53.132;6.394;2022-10-16T02:55:16;13.10;99.90
52209;DHT22;38507;53.132;6.394;2022-10-16T02:57:42;12.90;99.90
52209;DHT22;38507;53.132;6.394;2022-10-16T03:00:10;13.30;99.90
52209;DHT22;38507;53.132;6.394;2022-10-16T03:02:36;12.70;99.90
52209;DHT22;38507;53.132;6.394;2022-10-16T03:05:02;12.80;99.90
52209;DHT22;38507;53.132;6.394;2022-10-16T03:07:28;12.70;99.90
52209;DHT22;38507;53.132;6.394;2022-10-16T03:09:53;12.80;99.90
52209;DHT22;38507;53.132;6.394;2022-10-16T03:12:21;12.70;99.90
52209;DHT22;38507;53.132;6.394;2022-10-16T03:14:47;13.20;99.90
52209;DHT22;38507;53.132;6.394;2022-10-16T03:17:13;13.20;99.90
52209;DHT22;38507;53.132;6.394;2022-10-16T03:19:39;12.80;99.90
52209;DHT22;38507;53.132;6.394;2022-10-16T03:22:04;12.90;99.90
52209;DHT22;38507;53.132;6.394;2022-10-16T03:24:30;13.40;99.90
52209;DHT22;38507;53.132;6.394;2022-10-16T03:26:56;13.50;99.90
52209;DHT22;38507;53.132;6.394;2022-10-16T03:29:22;13.20;99.90
52209;DHT22;38507;53.132;6.394;2022-10-16T03:31:47;12.70;99.90
52209;DHT22;38507;53.132;6.394;2022-10-16T03:34:15;12.80;99.90
52209;DHT22;38507;53.132;6.394;2022-10-16T03:36:40;12.90;99.90
52209;DHT22;38507;53.132;6.394;2022-10-16T03:39:06;12.60;99.90
52209;DHT22;38507;53.132;6.394;2022-10-16T03:41:32;12.90;99.90
52209;DHT22;38507;53.132;6.394;2022-10-16T03:43:57;12.60;99.90
52209;DHT22;38507;53.132;6.394;2022-10-16T03:46:23;12.70;99.90
52209;DHT22;38507;53.132;6.394;2022-10-16T03:48:48;12.60;99.90
52209;DHT22;38507;53.132;6.394;2022-10-16T03:51:14;12.50;99.90
52209;DHT22;38507;53.132;6.394;2022-10-16T03:53:40;13.20;99.90
52209;DHT22;38507;53.132;6.394;2022-10-16T03:56:05;12.90;99.90
52209;DHT22;38507;53.132;6.394;2022-10-16T03:58:31;12.60;99.90
52209;DHT22;38507;53.132;6.394;2022-10-16T04:00:57;12.50;99.90
52209;DHT22;38507;53.132;6.394;2022-10-16T04:03:22;12.50;99.90
52209;DHT22;38507;53.132;6.394;2022-10-16T04:05:48;12.50;99.90
52209;DHT22;38507;53.132;6.394;2022-10-16T04:08:15;13.10;99.90
52209;DHT22;38507;53.132;6.394;2022-10-16T04:10:43;12.70;99.90
52209;DHT22;38507;53.132;6.394;2022-10-16T04:13:09;12.50;99.90
52209;DHT22;38507;53.132;6.394;2022-10-16T04:15:34;12.80;99.90
52209;DHT22;38507;53.132;6.394;2022-10-16T04:18:00;12.60;99.90
52209;DHT22;38507;53.132;6.394;2022-10-16T04:20:26;12.30;99.90
52209;DHT22;38507;53.132;6.394;2022-10-16T04:22:52;12.30;99.90
52209;DHT22;38507;53.132;6.394;2022-10-16T04:25:17;12.30;99.90
52209;DHT22;38507;53.132;6.394;2022-10-16T04:27:43;12.70;99.90
52209;DHT22;38507;53.132;6.394;2022-10-16T04:30:09;12.40;99.90
52209;DHT22;38507;53.132;6.394;2022-10-16T04:32:35;12.30;99.90
52209;DHT22;38507;53.132;6.394;2022-10-16T04:35:00;12.50;99.90
52209;DHT22;38507;53.132;6.394;2022-10-16T04:37:26;12.50;99.90
52209;DHT22;38507;53.132;6.394;2022-10-16T04:39:53;12.70;99.90
52209;DHT22;38507;53.132;6.394;2022-10-16T04:42:19;12.40;99.90
52209;DHT22;38507;53.132;6.394;2022-10-16T04:44:45;12.80;99.90
52209;DHT22;38507;53.132;6.394;2022-10-16T04:47:11;12.70;99.90
52209;DHT22;38507;53.132;6.394;2022-10-16T04:49:36;12.90;99.90
52209;DHT22;38507;53.132;6.394;2022-10-16T04:52:03;12.90;99.90
52209;DHT22;38507;53.132;6.394;2022-10-16T04:54:31;12.50;99.90
52209;DHT22;38507;53.132;6.394;2022-10-16T04:56:57;12.90;99.90
52209;DHT22;38507;53.132;6.394;2022-10-16T04:59:23;12.90;99.90
52209;DHT22;38507;53.132;6.394;2022-10-16T05:01:49;13.00;99.90
52209;DHT22;38507;53.132;6.394;2022-10-16T05:04:15;12.60;99.90
52209;DHT22;38507;53.132;6.394;2022-10-16T05:06:41;12.80;99.90
52209;DHT22;38507;53.132;6.394;2022-10-16T05:09:08;12.90;99.90
52209;DHT22;38507;53.132;6.394;2022-10-16T05:11:34;12.50;99.90
52209;DHT22;38507;53.132;6.394;2022-10-16T05:14:00;12.50;99.90
52209;DHT22;38507;53.132;6.394;2022-10-16T05:16:26;12.80;99.90
52209;DHT22;38507;53.132;6.394;2022-10-16T05:18:52;12.50;99.90
52209;DHT22;38507;53.132;6.394;2022-10-16T05:21:18;13.00;99.90
52209;DHT22;38507;53.132;6.394;2022-10-16T05:23:44;12.70;99.90
52209;DHT22;38507;53.132;6.394;2022-10-16T05:26:10;12.40;99.90
52209;DHT22;38507;53.132;6.394;2022-10-16T05:28:35;12.40;99.90
52209;DHT22;38507;53.132;6.394;2022-10-16T05:31:05;12.70;99.90
52209;DHT22;38507;53.132;6.394;2022-10-16T05:33:32;12.40;99.90
52209;DHT22;38507;53.132;6.394;2022-10-16T05:36:04;12.40;99.90
52209;DHT22;38507;53.132;6.394;2022-10-16T05:38:30;12.40;99.90
52209;DHT22;38507;53.132;6.394;2022-10-16T05:40:56;12.80;99.90
52209;DHT22;38507;53.132;6.394;2022-10-16T05:43:22;12.90;99.90
52209;DHT22;38507;53.132;6.394;2022-10-16T05:45:59;13.00;99.90
52209;DHT22;38507;53.132;6.394;2022-10-16T05:48:25;12.60;99.90
52209;DHT22;38507;53.132;6.394;2022-10-16T05:51:03;13.00;99.90
52209;DHT22;38507;53.132;6.394;2022-10-16T05:53:31;12.50;99.90
52209;DHT22;38507;53.132;6.394;2022-10-16T05:55:56;12.50;99.90
52209;DHT22;38507;53.132;6.394;2022-10-16T05:58:23;12.50;99.90
52209;DHT22;38507;53.132;6.394;2022-10-16T06:01:04;12.80;99.90
52209;DHT22;38507;53.132;6.394;2022-10-16T06:03:30;12.50;99.90
52209;DHT22;38507;53.132;6.394;2022-10-16T06:05:59;12.70;99.90
52209;DHT22;38507;53.132;6.394;2022-10-16T06:08:24;12.50;99.90
52209;DHT22;38507;53.132;6.394;2022-10-16T06:11:04;12.40;99.90
52209;DHT22;38507;53.132;6.394;2022-10-16T06:13:30;12.50;99.90
52209;DHT22;38507;53.132;6.394;2022-10-16T06:15:58;13.00;99.90
52209;DHT22;38507;53.132;6.394;2022-10-16T06:18:25;12.60;99.90
52209;DHT22;38507;53.132;6.394;2022-10-16T06:20:51;12.80;99.90
52209;DHT22;38507;53.132;6.394;2022-10-16T06:23:16;12.70;99.90
52209;DHT22;38507;53.132;6.394;2022-10-16T06:25:42;13.20;99.90
52209;DHT22;38507;53.132;6.394;2022-10-16T06:28:08;12.60;99.90
52209;DHT22;38507;53.132;6.394;2022-10-16T06:30:36;13.00;99.90
52209;DHT22;38507;53.132;6.394;2022-10-16T06:33:04;12.60;99.90
52209;DHT22;38507;53.132;6.394;2022-10-16T06:35:30;12.60;99.90
52209;DHT22;38507;53.132;6.394;2022-10-16T06:37:57;12.70;99.90
52209;DHT22;38507;53.132;6.394;2022-10-16T06:40:23;13.20;99.90
52209;DHT22;38507;53.132;6.394;2022-10-16T06:42:48;13.00;99.90
52209;DHT22;38507;53.132;6.394;2022-10-16T06:45:14;12.70;99.90
52209;DHT22;38507;53.132;6.394;2022-10-16T06:47:39;13.30;99.90
52209;DHT22;38507;53.132;6.394;2022-10-16T06:50:06;12.70;99.90
52209;DHT22;38507;53.132;6.394;2022-10-16T06:52:34;12.70;99.90
52209;DHT22;38507;53.132;6.394;2022-10-16T06:55:00;13.30;99.90
52209;DHT22;38507;53.132;6.394;2022-10-16T06:57:26;13.00;99.90
52209;DHT22;38507;53.132;6.394;2022-10-16T06:59:52;12.80;99.90
52209;DHT22;38507;53.132;6.394;2022-10-16T07:02:17;12.80;99.90
52209;DHT22;38507;53.132;6.394;2022-10-16T07:04:43;12.80;99.90
52209;DHT22;38507;53.132;6.394;2022-10-16T07:07:09;12.80;99.90
52209;DHT22;38507;53.132;6.394;2022-10-16T07:09:34;12.80;99.90
52209;DHT22;38507;53.132;6.394;2022-10-16T07:12:00;12.80;99.90
52209;DHT22;38507;53.132;6.394;2022-10-16T07:14:25;13.40;99.90
52209;DHT22;38507;53.132;6.394;2022-10-16T07:16:51;12.80;99.90
52209;DHT22;38507;53.132;6.394;2022-10-16T07:19:17;12.90;99.90
52209;DHT22;38507;53.132;6.394;2022-10-16T07:21:43;12.90;99.90
52209;DHT22;38507;53.132;6.394;2022-10-16T07:24:14;12.80;99.90
52209;DHT22;38507;53.132;6.394;2022-10-16T07:26:41;13.30;99.90
52209;DHT22;38507;53.132;6.394;2022-10-16T07:29:16;12.80;99.90
52209;DHT22;38507;53.132;6.394;2022-10-16T07:31:42;13.20;99.90
52209;DHT22;38507;53.132;6.394;2022-10-16T07:34:10;12.90;99.90
52209;DHT22;38507;53.132;6.394;2022-10-16T07:36:35;13.20;99.90
52209;DHT22;38507;53.132;6.394;2022-10-16T07:39:01;12.90;99.90
52209;DHT22;38507;53.132;6.394;2022-10-16T07:41:27;12.90;99.90
52209;DHT22;38507;53.132;6.394;2022-10-16T07:43:53;13.20;99.90
52209;DHT22;38507;53.132;6.394;2022-10-16T07:46:21;12.90;99.90
52209;DHT22;38507;53.132;6.394;2022-10-16T07:48:47;12.90;99.90
52209;DHT22;38507;53.132;6.394;2022-10-16T07:51:16;13.00;99.90
52209;DHT22;38507;53.132;6.394;2022-10-16T07:53:45;13.10;99.90
52209;DHT22;38507;53.132;6.394;2022-10-16T07:56:12;13.40;99.90
52209;DHT22;38507;53.132;6.394;2022-10-16T07:58:41;13.00;99.90
52209;DHT22;38507;53.132;6.394;2022-10-16T08:01:09;13.00;99.90
52209;DHT22;38507;53.132;6.394;2022-10-16T08:03:36;13.00;99.90
52209;DHT22;38507;53.132;6.394;2022-10-16T08:06:03;13.00;99.90
52209;DHT22;38507;53.132;6.394;2022-10-16T08:08:32;13.10;99.90
52209;DHT22;38507;53.132;6.394;2022-10-16T08:11:01;13.40;99.90
52209;DHT22;38507;53.132;6.394;2022-10-16T08:13:29;13.60;99.90
52209;DHT22;38507;53.132;6.394;2022-10-16T08:15:55;13.50;99.90
52209;DHT22;38507;53.132;6.394;2022-10-16T08:18:21;13.10;99.90
52209;DHT22;38507;53.132;6.394;2022-10-16T08:20:47;13.60;99.90
52209;DHT22;38507;53.132;6.394;2022-10-16T08:23:13;13.30;99.90
52209;DHT22;38507;53.132;6.394;2022-10-16T08:25:39;13.50;99.90
52209;DHT22;38507;53.132;6.394;2022-10-16T08:28:07;13.80;99.90
52209;DHT22;38507;53.132;6.394;2022-10-16T08:30:33;14.00;99.90
52209;DHT22;38507;53.132;6.394;2022-10-16T08:32:59;14.20;99.90
52209;DHT22;38507;53.132;6.394;2022-10-16T08:35:25;14.30;99.90
52209;DHT22;38507;53.132;6.394;2022-10-16T08:37:51;14.20;99.90
52209;DHT22;38507;53.132;6.394;2022-10-16T08:40:20;14.10;99.90
52209;DHT22;38507;53.132;6.394;2022-10-16T08:50:55;14.70;99.90
52209;DHT22;38507;53.132;6.394;2022-10-16T08:53:26;14.70;99.90
52209;DHT22;38507;53.132;6.394;2022-10-16T08:55:53;14.80;99.90
52209;DHT22;38507;53.132;6.394;2022-10-16T08:58:29;15.00;99.90
52209;DHT22;38507;53.132;6.394;2022-10-16T09:01:00;15.50;99.90
52209;DHT22;38507;53.132;6.394;2022-10-16T09:04:04;15.40;99.90
52209;DHT22;38507;53.132;6.394;2022-10-16T09:15:11;15.30;99.90
52209;DHT22;38507;53.132;6.394;2022-10-16T09:18:09;15.50;99.90
52209;DHT22;38507;53.132;6.394;2022-10-16T09:20:49;15.70;99.90
52209;DHT22;38507;53.132;6.394;2022-10-16T09:23:19;15.80;99.90
52209;DHT22;38507;53.132;6.394;2022-10-16T09:25:49;15.70;99.90
52209;DHT22;38507;53.132;6.394;2022-10-16T09:28:16;16.00;99.90
52209;DHT22;38507;53.132;6.394;2022-10-16T09:30:43;16.20;99.90
52209;DHT22;38507;53.132;6.394;2022-10-16T09:33:10;15.70;99.90
52209;DHT22;38507;53.132;6.394;2022-10-16T09:35:40;15.90;99.90
52209;DHT22;38507;53.132;6.394;2022-10-16T09:38:07;15.90;99.90
52209;DHT22;38507;53.132;6.394;2022-10-16T09:40:38;15.60;99.90
52209;DHT22;38507;53.132;6.394;2022-10-16T09:45:42;15.50;99.90
52209;DHT22;38507;53.132;6.394;2022-10-16T09:48:13;15.70;99.90
52209;DHT22;38507;53.132;6.394;2022-10-16T09:50:43;15.60;99.90
52209;DHT22;38507;53.132;6.394;2022-10-16T09:53:12;15.60;99.90
52209;DHT22;38507;53.132;6.394;2022-10-16T09:55:51;15.70;99.90
52209;DHT22;38507;53.132;6.394;2022-10-16T09:58:17;15.70;99.90
52209;DHT22;38507;53.132;6.394;2022-10-16T10:00:49;15.60;99.90
52209;DHT22;38507;53.132;6.394;2022-10-16T10:03:33;16.10;99.90
52209;DHT22;38507;53.132;6.394;2022-10-16T10:06:15;15.90;99.90
52209;DHT22;38507;53.132;6.394;2022-10-16T10:11:40;16.10;99.90
52209;DHT22;38507;53.132;6.394;2022-10-16T10:14:18;16.10;99.90
52209;DHT22;38507;53.132;6.394;2022-10-16T10:16:45;16.30;99.90
52209;DHT22;38507;53.132;6.394;2022-10-16T10:19:20;16.90;99.90
52209;DHT22;38507;53.132;6.394;2022-10-16T10:21:46;16.50;99.90
52209;DHT22;38507;53.132;6.394;2022-10-16T10:24:13;16.60;99.90
52209;DHT22;38507;53.132;6.394;2022-10-16T10:26:53;16.80;99.90
52209;DHT22;38507;53.132;6.394;2022-10-16T10:29:41;16.70;99.90
52209;DHT22;38507;53.132;6.394;2022-10-16T10:32:24;16.70;99.90
52209;DHT22;38507;53.132;6.394;2022-10-16T10:35:28;16.90;99.90
52209;DHT22;38507;53.132;6.394;2022-10-16T10:40:49;17.00;99.90
52209;DHT22;38507;53.132;6.394;2022-10-16T10:45:46;17.10;99.90
52209;DHT22;38507;53.132;6.394;2022-10-16T10:48:17;17.10;99.90
52209;DHT22;38507;53.132;6.394;2022-10-16T10:53:24;17.40;99.90
52209;DHT22;38507;53.132;6.394;2022-10-16T11:01:16;17.50;99.90
52209;DHT22;38507;53.132;6.394;2022-10-16T11:09:31;17.50;99.90
52209;DHT22;38507;53.132;6.394;2022-10-16T11:12:19;17.50;99.90
52209;DHT22;38507;53.132;6.394;2022-10-16T11:14:57;17.60;99.90
52209;DHT22;38507;53.132;6.394;2022-10-16T11:17:35;17.60;99.90
52209;DHT22;38507;53.132;6.394;2022-10-16T11:20:23;17.60;99.90
52209;DHT22;38507;53.132;6.394;2022-10-16T11:22:54;17.60;99.90
52209;DHT22;38507;53.132;6.394;2022-10-16T11:25:26;17.70;99.90
52209;DHT22;38507;53.132;6.394;2022-10-16T11:30:59;17.70;99.90
52209;DHT22;38507;53.132;6.394;2022-10-16T11:33:32;17.90;99.90
52209;DHT22;38507;53.132;6.394;2022-10-16T11:36:37;18.00;99.90
52209;DHT22;38507;53.132;6.394;2022-10-16T11:39:19;18.30;99.90
52209;DHT22;38507;53.132;6.394;2022-10-16T11:47:43;18.10;99.90
52209;DHT22;38507;53.132;6.394;2022-10-16T11:50:41;18.10;99.90
52209;DHT22;38507;53.132;6.394;2022-10-16T11:55:56;18.10;99.90
52209;DHT22;38507;53.132;6.394;2022-10-16T11:58:36;18.40;99.90
52209;DHT22;38507;53.132;6.394;2022-10-16T12:01:24;18.30;99.90
52209;DHT22;38507;53.132;6.394;2022-10-16T12:08:59;18.00;99.90
52209;DHT22;38507;53.132;6.394;2022-10-16T12:14:19;18.10;99.90
52209;DHT22;38507;53.132;6.394;2022-10-16T12:16:52;17.70;99.90
52209;DHT22;38507;53.132;6.394;2022-10-16T12:19:18;17.80;99.90
52209;DHT22;38507;53.132;6.394;2022-10-16T12:21:45;17.80;99.90
52209;DHT22;38507;53.132;6.394;2022-10-16T12:24:22;17.50;99.90
52209;DHT22;38507;53.132;6.394;2022-10-16T12:26:53;17.40;99.90
52209;DHT22;38507;53.132;6.394;2022-10-16T12:29:37;17.40;99.90
52209;DHT22;38507;53.132;6.394;2022-10-16T12:34:48;16.70;99.90
52209;DHT22;38507;53.132;6.394;2022-10-16T12:37:26;16.70;99.90
52209;DHT22;38507;53.132;6.394;2022-10-16T12:39:54;16.50;99.90
52209;DHT22;38507;53.132;6.394;2022-10-16T12:45:12;16.30;99.90
52209;DHT22;38507;53.132;6.394;2022-10-16T12:47:49;16.20;99.90
52209;DHT22;38507;53.132;6.394;2022-10-16T12:50:25;16.20;99.90
52209;DHT22;38507;53.132;6.394;2022-10-16T12:52:51;16.20;99.90
52209;DHT22;38507;53.132;6.394;2022-10-16T12:55:19;16.20;99.90
52209;DHT22;38507;53.132;6.394;2022-10-16T12:58:15;16.20;99.90
52209;DHT22;38507;53.132;6.394;2022-10-16T13:06:29;16.40;99.90
52209;DHT22;38507;53.132;6.394;2022-10-16T13:09:08;16.40;99.90
52209;DHT22;38507;53.132;6.394;2022-10-16T13:12:17;16.30;99.90
52209;DHT22;38507;53.132;6.394;2022-10-16T13:17:40;16.20;99.90
52209;DHT22;38507;53.132;6.394;2022-10-16T13:20:18;16.30;99.90
52209;DHT22;38507;53.132;6.394;2022-10-16T13:28:09;16.10;99.90
52209;DHT22;38507;53.132;6.394;2022-10-16T13:30:53;16.10;99.90
52209;DHT22;38507;53.132;6.394;2022-10-16T13:33:32;16.40;99.90
52209;DHT22;38507;53.132;6.394;2022-10-16T13:35:58;16.30;99.90
52209;DHT22;38507;53.132;6.394;2022-10-16T13:38:26;16.30;99.90
52209;DHT22;38507;53.132;6.394;2022-10-16T13:45:56;16.40;99.90
52209;DHT22;38507;53.132;6.394;2022-10-16T13:48:22;16.70;99.90
52209;DHT22;38507;53.132;6.394;2022-10-16T13:51:01;16.80;99.90
52209;DHT22;38507;53.132;6.394;2022-10-16T13:53:27;17.00;99.90
52209;DHT22;38507;53.132;6.394;2022-10-16T13:55:55;17.30;99.90
52209;DHT22;38507;53.132;6.394;2022-10-16T13:58:22;17.40;99.90
52209;DHT22;38507;53.132;6.394;2022-10-16T14:00:56;17.80;99.90
52209;DHT22;38507;53.132;6.394;2022-10-16T14:03:25;18.00;99.90
52209;DHT22;38507;53.132;6.394;2022-10-16T14:05:52;17.80;99.90
52209;DHT22;38507;53.132;6.394;2022-10-16T14:08:19;18.00;99.90
52209;DHT22;38507;53.132;6.394;2022-10-16T14:10:49;18.20;99.90
52209;DHT22;38507;53.132;6.394;2022-10-16T14:13:19;18.20;99.90
52209;DHT22;38507;53.132;6.394;2022-10-16T14:15:51;18.30;99.90
52209;DHT22;38507;53.132;6.394;2022-10-16T14:18:22;18.30;99.90
52209;DHT22;38507;53.132;6.394;2022-10-16T14:20:48;18.30;99.90
52209;DHT22;38507;53.132;6.394;2022-10-16T14:23:28;18.20;99.90
52209;DHT22;38507;53.132;6.394;2022-10-16T14:26:16;18.20;99.90
52209;DHT22;38507;53.132;6.394;2022-10-16T14:28:43;18.00;99.90
52209;DHT22;38507;53.132;6.394;2022-10-16T14:31:29;17.90;99.90
52209;DHT22;38507;53.132;6.394;2022-10-16T14:33:55;17.80;99.90
52209;DHT22;38507;53.132;6.394;2022-10-16T14:36:24;17.70;99.90
52209;DHT22;38507;53.132;6.394;2022-10-16T14:39:14;17.50;99.90
52209;DHT22;38507;53.132;6.394;2022-10-16T14:41:48;17.30;99.90
52209;DHT22;38507;53.132;6.394;2022-10-16T14:44:14;17.20;99.90
52209;DHT22;38507;53.132;6.394;2022-10-16T14:46:43;17.00;99.90
52209;DHT22;38507;53.132;6.394;2022-10-16T14:51:35;16.80;99.90
52209;DHT22;38507;53.132;6.394;2022-10-16T14:54:01;16.60;99.90
52209;DHT22;38507;53.132;6.394;2022-10-16T14:59:22;16.40;99.90
52209;DHT22;38507;53.132;6.394;2022-10-16T15:01:50;16.30;99.90
52209;DHT22;38507;53.132;6.394;2022-10-16T15:04:16;16.30;99.90
52209;DHT22;38507;53.132;6.394;2022-10-16T15:06:42;16.20;99.90
52209;DHT22;38507;53.132;6.394;2022-10-16T15:09:08;16.10;99.90
52209;DHT22;38507;53.132;6.394;2022-10-16T15:11:34;16.50;99.90
52209;DHT22;38507;53.132;6.394;2022-10-16T15:14:00;16.00;99.90
52209;DHT22;38507;53.132;6.394;2022-10-16T15:16:25;16.30;99.90
52209;DHT22;38507;53.132;6.394;2022-10-16T15:18:51;15.90;99.90
52209;DHT22;38507;53.132;6.394;2022-10-16T15:21:27;15.90;99.90
52209;DHT22;38507;53.132;6.394;2022-10-16T15:23:53;15.90;99.90
52209;DHT22;38507;53.132;6.394;2022-10-16T15:26:19;15.80;99.90
52209;DHT22;38507;53.132;6.394;2022-10-16T15:28:44;15.80;99.90
52209;DHT22;38507;53.132;6.394;2022-10-16T15:31:10;15.80;99.90
52209;DHT22;38507;53.132;6.394;2022-10-16T15:33:35;15.70;99.90
52209;DHT22;38507;53.132;6.394;2022-10-16T15:36:10;15.60;99.90
52209;DHT22;38507;53.132;6.394;2022-10-16T15:38:41;15.50;99.90
52209;DHT22;38507;53.132;6.394;2022-10-16T15:41:07;15.50;99.90
52209;DHT22;38507;53.132;6.394;2022-10-16T15:43:33;15.50;99.90
52209;DHT22;38507;53.132;6.394;2022-10-16T15:46:01;15.40;99.90
52209;DHT22;38507;53.132;6.394;2022-10-16T15:48:28;15.40;99.90
52209;DHT22;38507;53.132;6.394;2022-10-16T15:50:54;15.30;99.90
52209;DHT22;38507;53.132;6.394;2022-10-16T15:53:20;15.40;99.90
52209;DHT22;38507;53.132;6.394;2022-10-16T15:55:45;15.30;99.90
52209;DHT22;38507;53.132;6.394;2022-10-16T15:58:11;15.40;99.90
52209;DHT22;38507;53.132;6.394;2022-10-16T16:00:56;15.10;99.90
52209;DHT22;38507;53.132;6.394;2022-10-16T16:03:22;15.10;99.90
52209;DHT22;38507;53.132;6.394;2022-10-16T16:05:48;15.00;99.90
52209;DHT22;38507;53.132;6.394;2022-10-16T16:08:13;15.20;99.90
52209;DHT22;38507;53.132;6.394;2022-10-16T16:10:39;15.40;99.90
52209;DHT22;38507;53.132;6.394;2022-10-16T16:13:04;14.90;99.90
52209;DHT22;38507;53.132;6.394;2022-10-16T16:15:30;15.00;99.90
52209;DHT22;38507;53.132;6.394;2022-10-16T16:17:58;14.70;99.90
52209;DHT22;38507;53.132;6.394;2022-10-16T16:20:25;14.60;99.90
52209;DHT22;38507;53.132;6.394;2022-10-16T16:22:51;14.60;99.90
52209;DHT22;38507;53.132;6.394;2022-10-16T16:25:17;14.50;99.90
52209;DHT22;38507;53.132;6.394;2022-10-16T16:27:42;14.50;99.90
52209;DHT22;38507;53.132;6.394;2022-10-16T16:30:10;14.40;99.90
52209;DHT22;38507;53.132;6.394;2022-10-16T16:32:36;14.30;99.90
52209;DHT22;38507;53.132;6.394;2022-10-16T16:35:03;14.60;99.90
52209;DHT22;38507;53.132;6.394;2022-10-16T16:37:29;14.00;99.90
52209;DHT22;38507;53.132;6.394;2022-10-16T16:40:01;13.90;99.90
52209;DHT22;38507;53.132;6.394;2022-10-16T16:42:27;14.30;99.90
52209;DHT22;38507;53.132;6.394;2022-10-16T16:44:53;13.70;99.90
52209;DHT22;38507;53.132;6.394;2022-10-16T16:47:19;13.80;99.90
52209;DHT22;38507;53.132;6.394;2022-10-16T16:49:50;13.60;99.90
52209;DHT22;38507;53.132;6.394;2022-10-16T16:52:17;14.10;99.90
52209;DHT22;38507;53.132;6.394;2022-10-16T16:54:43;13.40;99.90
52209;DHT22;38507;53.132;6.394;2022-10-16T16:57:10;13.40;99.90
52209;DHT22;38507;53.132;6.394;2022-10-16T16:59:36;13.30;99.90
52209;DHT22;38507;53.132;6.394;2022-10-16T17:02:02;13.30;99.90
52209;DHT22;38507;53.132;6.394;2022-10-16T17:04:31;13.10;99.90
52209;DHT22;38507;53.132;6.394;2022-10-16T17:06:56;13.50;99.90
52209;DHT22;38507;53.132;6.394;2022-10-16T17:09:22;13.50;99.90
52209;DHT22;38507;53.132;6.394;2022-10-16T17:11:48;13.30;99.90
52209;DHT22;38507;53.132;6.394;2022-10-16T17:14:14;12.80;99.90
52209;DHT22;38507;53.132;6.394;2022-10-16T17:16:40;12.80;99.90
52209;DHT22;38507;53.132;6.394;2022-10-16T17:19:15;12.60;99.90
52209;DHT22;38507;53.132;6.394;2022-10-16T17:21:41;12.50;99.90
52209;DHT22;38507;53.132;6.394;2022-10-16T17:24:07;12.80;99.90